Time;durP1;ratioP1;P1;durP2;ratioP2;P2;SDS_P1;SDS_P2;PMS_P1;PMS_P2;Temp;Humidity;BMP_temperature;BMP_pressure;BME280_temperature;BME280_humidity;BME280_pressure;Samples;Min_cycle;Max_cycle;Signal;HPM_P1;HPM_P2
2022/10/03 00:01:11;;;;;;;;;;;10.10;99.90;;;;;;4403763;27;10000548;-74
2022/10/03 00:03:47;;;;;;;;;;;10.00;99.90;;;;;;5098667;28;19937;-74
2022/10/03 00:06:32;;;;;;;;;;;9.90;99.90;;;;;;5097909;28;19908;-74
2022/10/03 00:09:10;;;;;;;;;;;9.80;99.90;;;;;;5105129;27;19911;-74
2022/10/03 00:11:54;;;;;;;;;;;9.70;99.90;;;;;;5114707;27;19932;-76
2022/10/03 00:14:22;;;;;;;;;;;9.70;99.90;;;;;;5119276;27;19911;-76
2022/10/03 00:17:03;;;;;;;;;;;9.70;99.90;;;;;;5107582;27;19911;-76
2022/10/03 00:19:43;;;;;;;;;;;9.60;99.90;;;;;;5126139;27;20183;-76
2022/10/03 00:22:17;;;;;;;;;;;9.60;99.90;;;;;;5124606;27;19907;-76
2022/10/03 00:24:45;;;;;;;;;;;9.60;99.90;;;;;;5096806;27;20011;-76
2022/10/03 00:27:16;;;;;;;;;;;9.60;99.90;;;;;;5111790;27;20270;-76
2022/10/03 00:30:02;;;;;;;;;;;9.60;99.90;;;;;;5115909;27;20006;-76
2022/10/03 00:32:46;;;;;;;;;;;9.60;99.90;;;;;;5097571;27;20014;-76
2022/10/03 00:35:19;;;;;;;;;;;9.50;99.90;;;;;;5119148;27;21142;-76
2022/10/03 00:37:54;;;;;;;;;;;9.50;99.90;;;;;;5116222;27;19919;-77
2022/10/03 00:40:55;;;;;;;;;;;9.50;99.90;;;;;;5119322;27;20202;-76
2022/10/03 00:43:26;;;;;;;;;;;9.50;99.90;;;;;;5021845;28;19916;-76
2022/10/03 00:45:58;;;;;;;;;;;9.50;99.90;;;;;;5081673;27;19997;-76
2022/10/03 00:48:29;;;;;;;;;;;9.50;99.90;;;;;;5108265;27;19904;-76
2022/10/03 00:51:13;;;;;;;;;;;9.50;99.90;;;;;;5099281;27;20002;-76
2022/10/03 00:53:57;;;;;;;;;;;9.50;99.90;;;;;;5108019;27;19999;-76
2022/10/03 00:56:23;;;;;;;;;;;9.40;99.90;;;;;;5096924;27;19916;-76
2022/10/03 00:59:01;;;;;;;;;;;9.50;99.90;;;;;;5103265;27;19908;-76
2022/10/03 01:01:26;;;;;;;;;;;9.50;99.90;;;;;;5102621;27;19907;-76
2022/10/03 01:03:58;;;;;;;;;;;9.50;99.90;;;;;;5102966;27;19908;-76
2022/10/03 01:06:26;;;;;;;;;;;9.50;99.90;;;;;;5086365;28;19914;-76
2022/10/03 01:09:10;;;;;;;;;;;9.60;99.90;;;;;;5104691;27;19907;-76
2022/10/03 01:11:48;;;;;;;;;;;9.60;99.90;;;;;;5091484;28;19942;-76
2022/10/03 01:14:36;;;;;;;;;;;9.70;99.90;;;;;;5119070;27;19908;-76
2022/10/03 01:17:01;;;;;;;;;;;9.70;99.90;;;;;;5071057;28;20405;-76
2022/10/03 01:19:27;;;;;;;;;;;9.70;99.90;;;;;;5101213;27;20153;-76
2022/10/03 01:22:14;;;;;;;;;;;9.70;99.90;;;;;;5092124;28;19943;-76
2022/10/03 01:24:51;;;;;;;;;;;9.70;99.90;;;;;;5106963;28;20025;-76
2022/10/03 01:27:25;;;;;;;;;;;9.70;99.90;;;;;;5090725;28;20295;-77
2022/10/03 01:32:43;;;;;;;;;;;9.70;99.90;;;;;;5094507;27;19935;-77
2022/10/03 01:35:21;;;;;;;;;;;9.60;99.90;;;;;;5092265;28;20382;-76
2022/10/03 01:37:46;;;;;;;;;;;9.60;99.90;;;;;;5097011;27;19923;-77
2022/10/03 01:40:25;;;;;;;;;;;9.60;99.90;;;;;;5103801;27;20366;-77
2022/10/03 01:43:13;;;;;;;;;;;9.60;99.90;;;;;;5100627;27;20365;-77
2022/10/03 01:45:42;;;;;;;;;;;9.50;99.90;;;;;;5129611;27;19907;-77
2022/10/03 01:48:13;;;;;;;;;;;9.50;99.90;;;;;;5122367;27;20116;-77
2022/10/03 01:50:47;;;;;;;;;;;9.50;99.90;;;;;;5121037;27;19907;-77
2022/10/03 01:53:19;;;;;;;;;;;9.50;99.90;;;;;;5124346;27;19904;-77
2022/10/03 01:55:44;;;;;;;;;;;9.50;99.90;;;;;;5129442;27;20312;-77
2022/10/03 01:58:30;;;;;;;;;;;9.50;99.90;;;;;;5125888;27;19911;-77
2022/10/03 02:01:00;;;;;;;;;;;9.50;99.90;;;;;;5114216;27;19945;-77
2022/10/03 02:03:51;;;;;;;;;;;9.40;99.90;;;;;;5120162;27;19910;-77
2022/10/03 02:06:26;;;;;;;;;;;9.40;99.90;;;;;;5081621;27;19911;-77
2022/10/03 02:08:56;;;;;;;;;;;9.40;99.90;;;;;;5119091;27;19919;-77
2022/10/03 02:11:43;;;;;;;;;;;9.50;99.90;;;;;;5114789;27;20288;-77
2022/10/03 02:14:34;;;;;;;;;;;9.40;99.90;;;;;;5117561;27;19918;-77
2022/10/03 02:17:06;;;;;;;;;;;9.40;99.90;;;;;;5123295;27;19926;-77
2022/10/03 02:19:47;;;;;;;;;;;9.50;99.90;;;;;;5113799;27;20385;-77
2022/10/03 02:22:32;;;;;;;;;;;9.50;99.90;;;;;;5121246;27;19923;-77
2022/10/03 02:25:16;;;;;;;;;;;9.40;99.90;;;;;;5125638;27;19911;-77
2022/10/03 02:28:02;;;;;;;;;;;9.40;99.90;;;;;;5119535;27;20367;-77
2022/10/03 02:30:46;;;;;;;;;;;9.40;99.90;;;;;;5109671;27;20395;-77
2022/10/03 02:33:32;;;;;;;;;;;9.40;99.90;;;;;;5110505;27;19911;-77
2022/10/03 02:36:06;;;;;;;;;;;9.30;99.90;;;;;;5114101;27;19912;-77
2022/10/03 02:38:50;;;;;;;;;;;9.30;99.90;;;;;;5119409;27;19918;-77
2022/10/03 02:41:31;;;;;;;;;;;9.30;99.90;;;;;;5103277;27;19908;-77
2022/10/03 02:43:57;;;;;;;;;;;9.30;99.90;;;;;;5123258;27;20330;-77
2022/10/03 02:46:31;;;;;;;;;;;9.40;99.90;;;;;;5123011;27;19937;-77
2022/10/03 02:49:12;;;;;;;;;;;9.40;99.90;;;;;;5117305;27;19969;-77
2022/10/03 02:51:40;;;;;;;;;;;9.50;99.90;;;;;;5113287;27;19934;-77
2022/10/03 02:54:24;;;;;;;;;;;9.50;99.90;;;;;;5107195;27;21159;-77
2022/10/03 02:57:08;;;;;;;;;;;9.50;99.90;;;;;;5119387;27;19911;-77
2022/10/03 02:59:52;;;;;;;;;;;9.60;99.90;;;;;;5117176;27;20941;-77
2022/10/03 03:02:18;;;;;;;;;;;9.60;99.90;;;;;;5115633;27;19924;-77
2022/10/03 03:05:03;;;;;;;;;;;9.60;99.90;;;;;;5121890;27;19918;-77
2022/10/03 03:07:52;;;;;;;;;;;9.60;99.90;;;;;;5118887;27;20071;-77
2022/10/03 03:10:17;;;;;;;;;;;9.50;99.90;;;;;;5076312;27;19933;-77
2022/10/03 03:12:54;;;;;;;;;;;9.50;99.90;;;;;;5118829;27;19915;-77
2022/10/03 03:15:29;;;;;;;;;;;9.40;99.90;;;;;;5115086;27;19922;-77
2022/10/03 03:18:13;;;;;;;;;;;9.30;99.90;;;;;;5106133;27;19908;-77
2022/10/03 03:20:41;;;;;;;;;;;9.20;99.90;;;;;;5109411;27;20396;-77
2022/10/03 03:23:19;;;;;;;;;;;9.20;99.90;;;;;;5120230;27;19911;-77
2022/10/03 03:26:03;;;;;;;;;;;9.20;99.90;;;;;;5116211;27;19922;-77
2022/10/03 03:28:47;;;;;;;;;;;9.30;99.90;;;;;;5121971;27;19912;-77
2022/10/03 03:31:17;;;;;;;;;;;9.30;99.90;;;;;;5117230;27;19916;-77
2022/10/03 03:33:58;;;;;;;;;;;9.30;99.90;;;;;;5113047;27;20074;-77
2022/10/03 03:36:38;;;;;;;;;;;9.20;99.90;;;;;;5123929;27;19938;-77
2022/10/03 03:39:19;;;;;;;;;;;9.20;99.90;;;;;;5113955;27;20280;-77
2022/10/03 03:42:23;;;;;;;;;;;9.20;99.90;;;;;;5112602;27;19904;-76
2022/10/03 03:45:12;;;;;;;;;;;9.10;99.90;;;;;;5008923;28;19913;-76
2022/10/03 03:47:37;;;;;;;;;;;9.10;99.90;;;;;;5009284;28;19912;-76
2022/10/03 03:50:03;;;;;;;;;;;9.00;99.90;;;;;;5067946;27;20355;-76
2022/10/03 03:52:41;;;;;;;;;;;9.00;99.90;;;;;;5119087;27;19937;-76
2022/10/03 03:55:14;;;;;;;;;;;9.00;99.90;;;;;;5111811;27;20250;-76
2022/10/03 03:57:51;;;;;;;;;;;9.00;99.90;;;;;;5113222;27;19955;-76
2022/10/03 04:00:20;;;;;;;;;;;9.00;99.90;;;;;;5115098;27;19907;-76
2022/10/03 04:02:51;;;;;;;;;;;9.00;99.90;;;;;;5121309;27;19903;-76
2022/10/03 04:05:20;;;;;;;;;;;9.00;99.90;;;;;;5120298;27;20267;-76
2022/10/03 04:07:51;;;;;;;;;;;9.00;99.90;;;;;;5114936;27;19915;-77
2022/10/03 04:10:31;;;;;;;;;;;9.00;99.90;;;;;;5114482;27;19964;-76
2022/10/03 04:12:57;;;;;;;;;;;9.10;99.90;;;;;;5109633;27;19907;-77
2022/10/03 04:15:22;;;;;;;;;;;9.10;99.90;;;;;;5113949;27;19923;-77
2022/10/03 04:21:03;;;;;;;;;;;9.10;99.90;;;;;;5116351;27;19985;-77
2022/10/03 04:23:49;;;;;;;;;;;9.10;99.90;;;;;;5124509;27;19907;-76
2022/10/03 04:26:15;;;;;;;;;;;9.10;99.90;;;;;;5113241;27;19907;-77
2022/10/03 04:28:44;;;;;;;;;;;9.10;99.90;;;;;;5112283;27;19916;-77
2022/10/03 04:31:22;;;;;;;;;;;9.10;99.90;;;;;;5117513;27;19914;-76
2022/10/03 04:34:06;;;;;;;;;;;9.10;99.90;;;;;;5111926;27;20631;-77
2022/10/03 04:36:46;;;;;;;;;;;9.10;99.90;;;;;;5112045;27;20678;-77
2022/10/03 04:39:14;;;;;;;;;;;9.10;99.90;;;;;;5118223;27;19918;-76
2022/10/03 04:41:58;;;;;;;;;;;9.10;99.90;;;;;;5124994;27;20265;-76
2022/10/03 04:44:36;;;;;;;;;;;9.20;99.90;;;;;;5097656;27;21213;-76
2022/10/03 04:47:20;;;;;;;;;;;9.20;99.90;;;;;;5093848;27;19912;-76
2022/10/03 04:49:54;;;;;;;;;;;9.20;99.90;;;;;;5092097;27;19973;-77
2022/10/03 04:52:24;;;;;;;;;;;9.20;99.90;;;;;;5101207;27;19904;-77
2022/10/03 04:55:03;;;;;;;;;;;9.20;99.90;;;;;;5094646;27;19911;-77
2022/10/03 04:57:34;;;;;;;;;;;9.20;99.90;;;;;;5094645;27;19907;-77
2022/10/03 05:00:07;;;;;;;;;;;9.20;99.90;;;;;;5097192;28;20136;-76
2022/10/03 05:02:41;;;;;;;;;;;9.20;99.90;;;;;;5091700;28;19907;-77
2022/10/03 05:05:13;;;;;;;;;;;9.20;99.90;;;;;;5096981;28;19908;-77
2022/10/03 05:07:44;;;;;;;;;;;9.10;99.90;;;;;;5090918;28;19914;-77
2022/10/03 05:10:25;;;;;;;;;;;9.10;99.90;;;;;;5092216;28;20000;-77
2022/10/03 05:13:15;;;;;;;;;;;9.10;99.90;;;;;;5097565;28;20211;-77
2022/10/03 05:15:49;;;;;;;;;;;9.20;99.90;;;;;;5096968;27;19912;-77
2022/10/03 05:18:23;;;;;;;;;;;9.20;99.90;;;;;;5090045;28;19916;-77
2022/10/03 05:20:58;;;;;;;;;;;9.20;99.90;;;;;;5096617;28;19908;-77
2022/10/03 05:23:45;;;;;;;;;;;9.20;99.90;;;;;;5096530;28;19914;-77
2022/10/03 05:26:22;;;;;;;;;;;9.20;99.90;;;;;;5091452;28;19910;-77
2022/10/03 05:28:49;;;;;;;;;;;9.20;99.90;;;;;;5085386;28;20208;-77
2022/10/03 05:31:17;;;;;;;;;;;9.20;99.90;;;;;;5089600;28;19903;-77
2022/10/03 05:33:50;;;;;;;;;;;9.20;99.90;;;;;;5100272;28;19915;-77
2022/10/03 05:36:34;;;;;;;;;;;9.20;99.90;;;;;;5101511;28;19921;-77
2022/10/03 05:39:18;;;;;;;;;;;9.20;99.90;;;;;;5091219;28;19912;-77
2022/10/03 05:41:52;;;;;;;;;;;9.20;99.90;;;;;;5083542;28;19908;-77
2022/10/03 05:44:20;;;;;;;;;;;9.20;99.90;;;;;;5084030;28;20492;-77
2022/10/03 05:46:56;;;;;;;;;;;9.20;99.90;;;;;;5085465;28;19912;-77
2022/10/03 05:49:29;;;;;;;;;;;9.20;99.90;;;;;;5090160;28;19922;-77
2022/10/03 05:51:57;;;;;;;;;;;9.20;99.90;;;;;;5086502;28;19912;-77
2022/10/03 05:54:39;;;;;;;;;;;9.20;99.90;;;;;;5092390;28;19939;-77
2022/10/03 05:57:17;;;;;;;;;;;9.20;99.90;;;;;;5085767;28;19947;-77
2022/10/03 06:00:06;;;;;;;;;;;9.20;99.90;;;;;;5086300;28;20370;-77
2022/10/03 06:02:58;;;;;;;;;;;9.30;99.90;;;;;;5070492;28;19999;-77
2022/10/03 06:05:24;;;;;;;;;;;9.30;99.90;;;;;;5083403;28;19912;-77
2022/10/03 06:08:08;;;;;;;;;;;9.30;99.90;;;;;;5079484;28;19908;-77
2022/10/03 06:10:51;;;;;;;;;;;9.30;99.90;;;;;;5089894;28;19908;-77
2022/10/03 06:13:19;;;;;;;;;;;9.30;99.90;;;;;;5090820;28;19915;-77
2022/10/03 06:15:54;;;;;;;;;;;9.30;99.90;;;;;;5092526;27;19931;-77
2022/10/03 06:18:31;;;;;;;;;;;9.30;99.90;;;;;;5092004;27;20006;-77
2022/10/03 06:20:56;;;;;;;;;;;9.40;99.90;;;;;;5092236;27;20295;-77
2022/10/03 06:23:40;;;;;;;;;;;9.40;99.90;;;;;;5096424;27;19911;-77
2022/10/03 06:26:05;;;;;;;;;;;9.50;99.90;;;;;;5094582;27;20017;-77
2022/10/03 06:28:43;;;;;;;;;;;9.50;99.90;;;;;;5083134;27;20382;-77
2022/10/03 06:31:27;;;;;;;;;;;9.60;99.90;;;;;;5092486;27;19907;-78
2022/10/03 06:34:11;;;;;;;;;;;9.50;99.90;;;;;;5098069;27;19915;-77
2022/10/03 06:36:39;;;;;;;;;;;9.60;99.90;;;;;;5098256;27;19937;-76
2022/10/03 06:39:23;;;;;;;;;;;9.60;99.90;;;;;;5093883;27;19908;-76
2022/10/03 06:42:09;;;;;;;;;;;9.70;99.90;;;;;;5100539;28;19903;-76
2022/10/03 06:44:43;;;;;;;;;;;9.70;99.90;;;;;;5087944;28;19916;-77
2022/10/03 06:47:18;;;;;;;;;;;9.80;99.90;;;;;;5084325;27;19911;-77
2022/10/03 06:50:01;;;;;;;;;;;9.80;99.90;;;;;;5105893;27;19939;-77
2022/10/03 06:52:26;;;;;;;;;;;9.90;99.90;;;;;;5098667;27;19947;-79
2022/10/03 06:55:11;;;;;;;;;;;10.00;99.90;;;;;;5100251;27;19989;-76
2022/10/03 06:57:36;;;;;;;;;;;10.00;99.90;;;;;;5097585;27;19911;-77
2022/10/03 07:00:14;;;;;;;;;;;10.00;99.90;;;;;;5093999;28;19912;-76
2022/10/03 07:02:39;;;;;;;;;;;10.10;99.90;;;;;;5105877;27;19911;-76
2022/10/03 07:05:24;;;;;;;;;;;10.10;99.90;;;;;;5095405;27;20008;-76
2022/10/03 07:07:49;;;;;;;;;;;10.10;99.90;;;;;;5102364;27;19908;-76
2022/10/03 07:10:34;;;;;;;;;;;10.20;99.90;;;;;;5103594;27;19927;-77
2022/10/03 07:13:10;;;;;;;;;;;10.20;99.90;;;;;;5091871;27;19927;-76
2022/10/03 07:15:46;;;;;;;;;;;10.20;99.90;;;;;;5103593;27;19915;-76
2022/10/03 07:18:11;;;;;;;;;;;10.20;99.90;;;;;;5104157;27;19927;-76
2022/10/03 07:20:49;;;;;;;;;;;10.30;99.90;;;;;;5103590;27;19908;-76
2022/10/03 07:23:34;;;;;;;;;;;10.30;99.90;;;;;;5096806;28;20382;-76
2022/10/03 07:26:09;;;;;;;;;;;10.40;99.90;;;;;;4746362;27;10000653;-76
2022/10/03 07:28:45;;;;;;;;;;;10.40;99.90;;;;;;5100223;27;19908;-76
2022/10/03 07:31:23;;;;;;;;;;;10.40;99.90;;;;;;5105808;27;19911;-76
2022/10/03 07:34:07;;;;;;;;;;;10.50;99.90;;;;;;5099984;28;19974;-76
2022/10/03 07:39:41;;;;;;;;;;;10.60;99.90;;;;;;5094060;27;20305;-75
2022/10/03 07:42:25;;;;;;;;;;;10.70;99.90;;;;;;5091926;28;20352;-76
2022/10/03 07:45:02;;;;;;;;;;;10.80;99.90;;;;;;5092298;27;19969;-75
2022/10/03 07:47:28;;;;;;;;;;;10.80;99.90;;;;;;5096899;27;20362;-76
2022/10/03 07:49:53;;;;;;;;;;;10.90;99.90;;;;;;5094109;27;19917;-76
2022/10/03 07:52:34;;;;;;;;;;;10.90;99.90;;;;;;5099013;27;19924;-76
2022/10/03 07:55:22;;;;;;;;;;;11.00;99.90;;;;;;5098065;27;19916;-76
2022/10/03 07:58:06;;;;;;;;;;;11.10;99.90;;;;;;5093586;27;19912;-75
2022/10/03 08:00:37;;;;;;;;;;;11.10;99.90;;;;;;5103119;28;19912;-76
2022/10/03 08:03:21;;;;;;;;;;;11.20;99.90;;;;;;5101771;27;20264;-75
2022/10/03 08:05:56;;;;;;;;;;;11.20;99.90;;;;;;5096204;27;19933;-76
2022/10/03 08:08:41;;;;;;;;;;;11.30;99.90;;;;;;5103787;28;19953;-76
2022/10/03 08:11:25;;;;;;;;;;;11.30;99.90;;;;;;5098959;27;19919;-76
2022/10/03 08:14:10;;;;;;;;;;;11.40;99.90;;;;;;5084872;28;19958;-75
2022/10/03 08:16:47;;;;;;;;;;;11.40;99.90;;;;;;5092061;27;19912;-75
2022/10/03 08:19:19;;;;;;;;;;;11.50;99.90;;;;;;5104030;27;20003;-75
2022/10/03 08:22:03;;;;;;;;;;;11.60;99.90;;;;;;5093396;27;19943;-75
2022/10/03 08:24:28;;;;;;;;;;;11.60;99.90;;;;;;5093339;27;19915;-75
2022/10/03 08:27:13;;;;;;;;;;;11.70;99.90;;;;;;5085745;27;19912;-74
2022/10/03 08:29:57;;;;;;;;;;;11.80;99.90;;;;;;5085814;27;19920;-74
2022/10/03 08:32:32;;;;;;;;;;;11.90;99.90;;;;;;5094610;28;19987;-74
2022/10/03 08:35:04;;;;;;;;;;;12.00;99.90;;;;;;5104502;27;19911;-75
2022/10/03 08:37:33;;;;;;;;;;;12.20;99.90;;;;;;5099898;27;19919;-74
2022/10/03 08:40:28;;;;;;;;;;;12.20;99.90;;;;;;5093466;27;20192;-74
2022/10/03 08:43:17;;;;;;;;;;;12.30;99.90;;;;;;5111554;27;20572;-74
2022/10/03 08:45:45;;;;;;;;;;;12.40;99.90;;;;;;5101934;27;19918;-74
2022/10/03 08:48:29;;;;;;;;;;;12.40;99.90;;;;;;5104953;27;20001;-74
2022/10/03 08:51:26;;;;;;;;;;;12.50;99.90;;;;;;5114911;27;19911;-74
2022/10/03 08:54:02;;;;;;;;;;;12.60;99.90;;;;;;5122095;27;20362;-74
2022/10/03 08:56:46;;;;;;;;;;;12.80;99.90;;;;;;5114361;27;20102;-74
2022/10/03 08:59:30;;;;;;;;;;;13.00;99.90;;;;;;5113071;27;19910;-74
2022/10/03 09:01:59;;;;;;;;;;;13.30;99.90;;;;;;5104193;27;19926;-74
2022/10/03 09:04:27;;;;;;;;;;;13.50;99.90;;;;;;5124726;27;20277;-74
2022/10/03 09:06:58;;;;;;;;;;;13.60;99.90;;;;;;5114201;27;20342;-74
2022/10/03 09:09:24;;;;;;;;;;;;;;;;;;5118945;27;19911;-74
2022/10/03 09:11:50;;;;;;;;;;;;;;;;;;5130558;27;19912;-74
2022/10/03 09:14:27;;;;;;;;;;;14.00;99.90;;;;;;5113932;27;20368;-74
2022/10/03 09:17:13;;;;;;;;;;;14.10;99.90;;;;;;5115308;27;19943;-74
2022/10/03 09:19:58;;;;;;;;;;;14.10;99.90;;;;;;5094461;27;19911;-76
2022/10/03 09:22:23;;;;;;;;;;;14.10;99.90;;;;;;5115118;27;19910;-75
2022/10/03 09:25:08;;;;;;;;;;;14.20;99.90;;;;;;5108242;27;19911;-76
2022/10/03 09:27:34;;;;;;;;;;;14.20;99.90;;;;;;5106918;27;20360;-78
2022/10/03 09:30:14;;;;;;;;;;;14.20;99.90;;;;;;5106873;28;19950;-75
2022/10/03 09:32:52;;;;;;;;;;;14.30;99.90;;;;;;5117889;27;20320;-75
2022/10/03 09:35:20;;;;;;;;;;;14.30;99.90;;;;;;5118429;27;19918;-74
2022/10/03 09:37:46;;;;;;;;;;;14.30;99.90;;;;;;5115669;27;19918;-75
2022/10/03 09:40:44;;;;;;;;;;;14.40;99.90;;;;;;5107916;27;20363;-75
2022/10/03 09:43:13;;;;;;;;;;;14.40;99.90;;;;;;5066179;28;19980;-75
2022/10/03 09:45:48;;;;;;;;;;;14.50;99.90;;;;;;5093456;28;19912;-74
2022/10/03 09:48:22;;;;;;;;;;;14.50;99.90;;;;;;5093562;28;20195;-75
2022/10/03 09:51:08;;;;;;;;;;;14.40;99.90;;;;;;5085513;28;19908;-75
2022/10/03 09:53:52;;;;;;;;;;;14.40;99.90;;;;;;5088275;28;19939;-75
2022/10/03 09:56:20;;;;;;;;;;;14.40;99.90;;;;;;5085895;28;19912;-75
2022/10/03 09:59:04;;;;;;;;;;;14.40;99.90;;;;;;5087478;28;20389;-75
2022/10/03 10:01:33;;;;;;;;;;;14.40;99.90;;;;;;5086682;28;19941;-75
2022/10/03 10:04:22;;;;;;;;;;;14.50;99.90;;;;;;5092745;27;19911;-75
2022/10/03 10:07:14;;;;;;;;;;;14.60;99.90;;;;;;5047143;28;19912;-75
2022/10/03 10:09:39;;;;;;;;;;;14.70;99.90;;;;;;5097838;28;19912;-74
2022/10/03 10:12:23;;;;;;;;;;;14.70;99.90;;;;;;5090208;28;19953;-74
2022/10/03 10:14:58;;;;;;;;;;;14.80;99.90;;;;;;5102566;27;19923;-74
2022/10/03 10:17:43;;;;;;;;;;;14.80;99.90;;;;;;5096774;28;20022;-74
2022/10/03 10:20:44;;;;;;;;;;;14.80;99.90;;;;;;5090278;28;20135;-74
2022/10/03 10:23:10;;;;;;;;;;;14.80;99.90;;;;;;5007250;28;19923;-74
2022/10/03 10:25:54;;;;;;;;;;;14.80;99.90;;;;;;5073159;28;20291;-75
2022/10/03 10:28:32;;;;;;;;;;;14.80;99.90;;;;;;5090710;28;19989;-75
2022/10/03 10:31:00;;;;;;;;;;;14.80;99.90;;;;;;5094921;28;19918;-74
2022/10/03 10:33:31;;;;;;;;;;;14.80;99.90;;;;;;5086133;28;19937;-74
2022/10/03 10:36:15;;;;;;;;;;;14.70;99.90;;;;;;5088917;28;19915;-75
2022/10/03 10:38:59;;;;;;;;;;;14.70;99.90;;;;;;5091253;28;20236;-74
2022/10/03 10:41:50;;;;;;;;;;;14.80;99.90;;;;;;5087043;28;19973;-75
2022/10/03 10:44:34;;;;;;;;;;;15.00;99.90;;;;;;5087846;28;20368;-74
2022/10/03 10:47:18;;;;;;;;;;;15.30;99.90;;;;;;5089330;28;19942;-75
2022/10/03 10:50:02;;;;;;;;;;;15.40;99.90;;;;;;5088945;28;20595;-74
2022/10/03 10:52:39;;;;;;;;;;;15.40;99.90;;;;;;5098913;28;20383;-75
2022/10/03 10:55:25;;;;;;;;;;;15.40;99.90;;;;;;5089216;28;20416;-74
2022/10/03 10:57:53;;;;;;;;;;;15.40;99.90;;;;;;5089066;27;20069;-74
2022/10/03 11:00:19;;;;;;;;;;;15.40;99.90;;;;;;5081708;27;20002;-75
2022/10/03 11:03:03;;;;;;;;;;;15.40;99.90;;;;;;5093841;28;19915;-74
2022/10/03 11:05:31;;;;;;;;;;;15.40;99.90;;;;;;5094935;28;19912;-74
2022/10/03 11:08:08;;;;;;;;;;;15.50;99.90;;;;;;5085020;28;20547;-75
2022/10/03 11:10:51;;;;;;;;;;;15.60;99.90;;;;;;5098124;28;20350;-74
2022/10/03 11:13:45;;;;;;;;;;;15.60;99.90;;;;;;5090642;28;19994;-74
2022/10/03 11:16:33;;;;;;;;;;;15.50;99.90;;;;;;5089713;28;19919;-74
2022/10/03 11:19:05;;;;;;;;;;;15.40;99.90;;;;;;5087256;28;19933;-74
2022/10/03 11:21:36;;;;;;;;;;;15.30;99.90;;;;;;5088385;28;19918;-76
2022/10/03 11:24:02;;;;;;;;;;;;;;;;;;4390696;28;10001039;-75
2022/10/03 11:27:06;;;;;;;;;;;15.60;99.90;;;;;;5090188;28;19911;-76
2022/10/03 11:29:51;;;;;;;;;;;15.90;99.90;;;;;;4997757;28;19913;-75
2022/10/03 11:32:17;;;;;;;;;;;;;;;;;;4997255;28;20216;-75
2022/10/03 11:34:42;;;;;;;;;;;16.50;99.90;;;;;;5048569;28;20384;-76
2022/10/03 11:37:18;;;;;;;;;;;16.60;99.90;;;;;;5081815;28;20064;-76
2022/10/03 11:39:53;;;;;;;;;;;16.60;99.90;;;;;;5100481;28;19911;-76
2022/10/03 11:42:21;;;;;;;;;;;16.50;99.90;;;;;;5097214;27;19989;-76
2022/10/03 11:44:55;;;;;;;;;;;16.30;99.90;;;;;;5117970;27;19915;-76
2022/10/03 11:47:39;;;;;;;;;;;16.10;99.90;;;;;;5090446;28;19911;-76
2022/10/03 11:50:05;;;;;;;;;;;16.10;99.90;;;;;;5088285;28;19908;-75
2022/10/03 11:52:46;;;;;;;;;;;16.10;99.90;;;;;;5097177;28;19908;-76
2022/10/03 11:55:29;;;;;;;;;;;16.40;99.90;;;;;;5098366;28;19908;-76
2022/10/03 11:57:55;;;;;;;;;;;;;;;;;;5112517;27;19951;-75
2022/10/03 12:00:22;;;;;;;;;;;16.80;99.90;;;;;;5105635;27;19955;-76
2022/10/03 12:02:50;;;;;;;;;;;16.90;99.90;;;;;;5112478;27;19912;-75
2022/10/03 12:05:41;;;;;;;;;;;16.90;99.90;;;;;;5104261;28;19915;-76
2022/10/03 12:11:28;;;;;;;;;;;16.90;99.90;;;;;;4730033;27;9999839;-75
2022/10/03 12:14:10;;;;;;;;;;;17.10;99.90;;;;;;5094924;28;19908;-76
2022/10/03 12:16:56;;;;;;;;;;;17.40;99.90;;;;;;5090102;28;20436;-76
2022/10/03 12:19:29;;;;;;;;;;;17.30;99.90;;;;;;5093674;28;19907;-76
2022/10/03 12:21:55;;;;;;;;;;;17.20;99.90;;;;;;5090036;28;19908;-76
2022/10/03 12:24:26;;;;;;;;;;;17.00;99.90;;;;;;5085883;27;19973;-76
2022/10/03 12:26:52;;;;;;;;;;;16.80;99.90;;;;;;5087806;28;19911;-75
2022/10/03 12:29:19;;;;;;;;;;;16.60;99.90;;;;;;5098569;27;19912;-74
2022/10/03 12:32:04;;;;;;;;;;;16.40;99.90;;;;;;5110789;27;19935;-75
2022/10/03 12:34:48;;;;;;;;;;;16.40;99.90;;;;;;5086354;28;19912;-75
2022/10/03 12:37:17;;;;;;;;;;;16.60;99.90;;;;;;5088261;27;20278;-75
2022/10/03 12:39:52;;;;;;;;;;;16.90;99.90;;;;;;5091410;28;19947;-76
2022/10/03 12:42:18;;;;;;;;;;;17.10;99.90;;;;;;5118437;27;19950;-75
2022/10/03 12:45:02;;;;;;;;;;;17.40;99.90;;;;;;5087503;27;20340;-74
2022/10/03 12:47:44;;;;;;;;;;;17.60;99.90;;;;;;5085433;28;20344;-74
2022/10/03 12:50:21;;;;;;;;;;;17.50;99.90;;;;;;5103654;28;19918;-75
2022/10/03 12:52:58;;;;;;;;;;;17.30;99.90;;;;;;5087519;28;19903;-75
2022/10/03 12:55:25;;;;;;;;;;;17.20;99.90;;;;;;5096200;27;20359;-76
2022/10/03 12:58:01;;;;;;;;;;;16.90;99.90;;;;;;5102052;27;20085;-76
2022/10/03 13:00:54;;;;;;;;;;;16.70;99.90;;;;;;5090575;27;19912;-75
2022/10/03 13:03:33;;;;;;;;;;;16.60;99.90;;;;;;5089719;27;19911;-74
2022/10/03 13:06:11;;;;;;;;;;;16.60;99.90;;;;;;5092858;28;19912;-80
2022/10/03 13:08:39;;;;;;;;;;;16.80;99.90;;;;;;4394593;27;10000662;-74
2022/10/03 13:11:05;;;;;;;;;;;17.10;99.90;;;;;;5091841;28;19919;-74
2022/10/03 13:13:34;;;;;;;;;;;17.40;99.90;;;;;;5080659;28;20292;-75
2022/10/03 13:16:20;;;;;;;;;;;17.50;99.90;;;;;;5092202;28;20010;-75
2022/10/03 13:19:05;;;;;;;;;;;17.30;99.90;;;;;;5085571;27;19962;-77
2022/10/03 13:21:37;;;;;;;;;;;17.30;99.90;;;;;;5113572;28;19911;-82
2022/10/03 13:24:05;;;;;;;;;;;17.20;99.90;;;;;;5110338;28;20305;-82
2022/10/03 13:26:43;;;;;;;;;;;17.10;99.90;;;;;;5104302;28;20248;-82
2022/10/03 13:29:12;;;;;;;;;;;17.00;99.90;;;;;;5103222;28;19907;-82
2022/10/03 13:32:07;;;;;;;;;;;16.80;99.90;;;;;;5087400;28;19908;-81
2022/10/03 13:34:46;;;;;;;;;;;16.70;99.90;;;;;;5064530;28;19908;-82
2022/10/03 13:37:15;;;;;;;;;;;16.60;99.90;;;;;;5084782;28;19915;-82
2022/10/03 13:39:47;;;;;;;;;;;16.40;99.90;;;;;;5110620;28;20272;-82
2022/10/03 13:42:15;;;;;;;;;;;16.30;99.90;;;;;;5129988;27;20005;-81
2022/10/03 13:44:47;;;;;;;;;;;16.20;99.90;;;;;;5133079;27;19915;-82
2022/10/03 13:47:18;;;;;;;;;;;16.10;99.90;;;;;;5109968;28;20360;-82
2022/10/03 13:49:47;;;;;;;;;;;16.10;99.90;;;;;;5118903;27;19918;-82
2022/10/03 13:52:31;;;;;;;;;;;16.10;99.90;;;;;;5122914;27;20255;-82
2022/10/03 13:55:02;;;;;;;;;;;16.00;99.90;;;;;;5127502;27;20002;-82
2022/10/03 13:57:33;;;;;;;;;;;16.00;99.90;;;;;;5113042;28;19908;-82
2022/10/03 14:00:11;;;;;;;;;;;16.00;99.90;;;;;;5104191;27;20355;-81
2022/10/03 14:02:38;;;;;;;;;;;15.90;99.90;;;;;;5125745;27;20327;-82
2022/10/03 14:05:04;;;;;;;;;;;15.80;99.90;;;;;;5126579;27;20270;-81
2022/10/03 14:07:44;;;;;;;;;;;15.70;99.90;;;;;;5124901;27;19908;-85
2022/10/03 14:10:11;;;;;;;;;;;15.60;99.90;;;;;;4774378;27;9999754;-85
2022/10/03 14:12:56;;;;;;;;;;;15.60;99.90;;;;;;5125997;27;20267;-80
2022/10/03 14:15:24;;;;;;;;;;;15.60;99.90;;;;;;4405109;28;10000703;-80
2022/10/03 14:17:53;;;;;;;;;;;15.60;99.90;;;;;;5124540;27;19915;-79
2022/10/03 14:20:18;;;;;;;;;;;15.60;99.90;;;;;;5127293;27;19908;-80
2022/10/03 14:22:57;;;;;;;;;;;15.70;99.90;;;;;;5100080;28;20278;-80
2022/10/03 14:25:25;;;;;;;;;;;15.70;99.90;;;;;;5109218;28;20341;-80
2022/10/03 14:27:52;;;;;;;;;;;15.70;99.90;;;;;;5116472;27;19915;-80
2022/10/03 14:30:30;;;;;;;;;;;15.70;99.90;;;;;;5118748;27;19903;-80
2022/10/03 14:33:03;;;;;;;;;;;15.70;99.90;;;;;;5110411;28;20365;-80
2022/10/03 14:35:36;;;;;;;;;;;15.70;99.90;;;;;;5100808;28;20403;-79
2022/10/03 14:38:16;;;;;;;;;;;15.60;99.90;;;;;;5119951;27;19919;-79
2022/10/03 14:40:47;;;;;;;;;;;15.50;99.90;;;;;;5106271;28;19903;-79
2022/10/03 14:43:13;;;;;;;;;;;15.40;99.90;;;;;;5127747;27;20133;-79
2022/10/03 14:45:42;;;;;;;;;;;15.40;99.90;;;;;;5125064;27;19918;-79
2022/10/03 14:48:15;;;;;;;;;;;15.30;99.90;;;;;;5111326;27;19911;-79
2022/10/03 14:50:41;;;;;;;;;;;15.30;99.90;;;;;;4746450;28;10000249;-78
2022/10/03 14:53:11;;;;;;;;;;;15.20;99.90;;;;;;5111021;27;20430;-79
2022/10/03 14:55:41;;;;;;;;;;;15.20;99.90;;;;;;5122975;27;19915;-78
2022/10/03 14:58:20;;;;;;;;;;;15.20;99.90;;;;;;5104342;27;20417;-78
2022/10/03 15:00:51;;;;;;;;;;;15.20;99.90;;;;;;5095136;27;20010;-78
2022/10/03 15:03:16;;;;;;;;;;;15.10;99.90;;;;;;5118052;27;19929;-78
2022/10/03 15:06:00;;;;;;;;;;;15.10;99.90;;;;;;5134742;27;19912;-79
2022/10/03 15:08:43;;;;;;;;;;;15.00;99.90;;;;;;5113588;27;19915;-78
2022/10/03 15:11:11;;;;;;;;;;;15.00;99.90;;;;;;5107454;27;20449;-79
2022/10/03 15:13:41;;;;;;;;;;;14.90;99.90;;;;;;5111053;27;19907;-80
2022/10/03 15:16:07;;;;;;;;;;;14.90;99.90;;;;;;5124436;27;20139;-80
2022/10/03 15:18:32;;;;;;;;;;;14.90;99.90;;;;;;5138539;27;19919;-79
2022/10/03 15:20:58;;;;;;;;;;;14.80;99.90;;;;;;5123645;27;19938;-79
2022/10/03 15:23:32;;;;;;;;;;;14.80;99.90;;;;;;5108628;27;20671;-79
2022/10/03 15:25:57;;;;;;;;;;;14.70;99.90;;;;;;5104202;27;19911;-79
2022/10/03 15:28:23;;;;;;;;;;;14.70;99.90;;;;;;5117920;27;19911;-78